Time;durP1;ratioP1;P1;durP2;ratioP2;P2;SDS_P1;SDS_P2;PMS_P1;PMS_P2;Temp;Humidity;BMP_temperature;BMP_pressure;BME280_temperature;BME280_humidity;BME280_pressure;Samples;Min_cycle;Max_cycle;Signal;HPM_P1;HPM_P2
2023/08/20 00:02:19;;;;;;;;;;;;;;;29.14;100.00;98246.22;5113782;28;19935;-75
2023/08/20 00:04:47;;;;;;;;;;;;;;;29.19;100.00;98240.38;5115726;28;20646;-75
2023/08/20 00:07:15;;;;;;;;;;;;;;;29.20;100.00;98236.47;5118659;28;19920;-75
2023/08/20 00:09:41;;;;;;;;;;;;;;;29.19;100.00;98237.63;5118918;28;19931;-75
2023/08/20 00:12:08;;;;;;;;;;;;;;;29.14;100.00;98240.72;5119677;28;19953;-75
2023/08/20 00:14:55;;;;;;;;;;;;;;;29.08;100.00;98239.47;5114840;28;20018;-75
2023/08/20 00:17:24;;;;;;;;;;;;;;;29.10;100.00;98237.94;5112920;28;19967;-75
2023/08/20 00:19:50;;;;;;;;;;;;;;;28.93;100.00;98231.09;5115269;28;19942;-75
2023/08/20 00:22:17;;;;;;;;;;;;;;;28.86;100.00;98227.44;5120193;28;19928;-75
2023/08/20 00:24:44;;;;;;;;;;;;;;;28.97;100.00;98235.84;5121297;28;19924;-75
2023/08/20 00:27:10;;;;;;;;;;;;;;;29.03;100.00;98226.06;5113111;28;19924;-75
2023/08/20 00:29:36;;;;;;;;;;;;;;;29.09;100.00;98228.09;5118574;28;19924;-75
2023/08/20 00:32:04;;;;;;;;;;;;;;;28.88;100.00;98219.63;5120036;28;19931;-75
2023/08/20 00:34:31;;;;;;;;;;;;;;;28.74;100.00;98227.72;5119786;28;19931;-75
2023/08/20 00:36:57;;;;;;;;;;;;;;;28.55;100.00;98222.34;5119663;28;19931;-75
2023/08/20 00:39:23;;;;;;;;;;;;;;;28.33;100.00;98219.31;5113103;28;19923;-75
2023/08/20 00:41:50;;;;;;;;;;;;;;;28.25;100.00;98225.09;5118087;28;19924;-74
2023/08/20 00:44:16;;;;;;;;;;;;;;;28.16;100.00;98217.09;5122185;28;19954;-75
2023/08/20 00:46:43;;;;;;;;;;;;;;;28.26;100.00;98218.41;5120408;28;19924;-75
2023/08/20 00:49:11;;;;;;;;;;;;;;;28.49;100.00;98221.88;5117157;28;19963;-75
2023/08/20 00:51:38;;;;;;;;;;;;;;;28.60;100.00;98222.78;5120390;28;19924;-75
2023/08/20 00:54:05;;;;;;;;;;;;;;;28.70;100.00;98208.41;5122123;28;19924;-75
2023/08/20 00:56:32;;;;;;;;;;;;;;;28.77;100.00;98208.50;5121822;28;19924;-75
2023/08/20 00:58:59;;;;;;;;;;;;;;;28.85;100.00;98204.66;5122828;28;19923;-75
2023/08/20 01:01:25;;;;;;;;;;;;;;;28.89;100.00;98210.22;5113628;28;19971;-75
2023/08/20 01:03:52;;;;;;;;;;;;;;;28.92;100.00;98207.50;5117929;28;19924;-75
2023/08/20 01:06:21;;;;;;;;;;;;;;;28.89;100.00;98204.72;5121495;28;19983;-75
2023/08/20 01:08:52;;;;;;;;;;;;;;;28.82;100.00;98202.66;5122384;28;19931;-75
2023/08/20 01:11:22;;;;;;;;;;;;;;;28.58;100.00;98216.09;5122648;28;19935;-75
2023/08/20 01:13:48;;;;;;;;;;;;;;;28.60;100.00;98217.28;5113404;28;19920;-75
2023/08/20 01:16:15;;;;;;;;;;;;;;;28.68;100.00;98230.00;5120414;28;19924;-75
2023/08/20 01:18:41;;;;;;;;;;;;;;;28.75;100.00;98235.56;5121413;28;19925;-75
2023/08/20 01:21:16;;;;;;;;;;;;;;;28.81;100.00;98228.56;5122724;28;19924;-75
2023/08/20 01:23:57;;;;;;;;;;;;;;;28.85;100.00;98234.09;5118945;28;19924;-75
2023/08/20 01:26:36;;;;;;;;;;;;;;;28.85;100.00;98223.13;5116218;28;19924;-75
2023/08/20 01:29:05;;;;;;;;;;;;;;;28.80;100.00;98227.00;5116227;28;19971;-75
2023/08/20 01:31:33;;;;;;;;;;;;;;;28.79;100.00;98225.41;5120188;28;19931;-75
2023/08/20 01:34:00;;;;;;;;;;;;;;;28.77;100.00;98236.00;5122111;28;19927;-75
2023/08/20 01:36:26;;;;;;;;;;;;;;;28.80;100.00;98239.94;5116919;28;19958;-75
2023/08/20 01:38:52;;;;;;;;;;;;;;;28.80;100.00;98250.94;5116927;28;19920;-75
2023/08/20 01:41:19;;;;;;;;;;;;;;;28.81;100.00;98253.31;5121176;28;19940;-75
2023/08/20 01:43:45;;;;;;;;;;;;;;;28.83;100.00;98259.25;5121217;28;19946;-75
2023/08/20 01:46:13;;;;;;;;;;;;;;;28.82;100.00;98257.66;5114735;28;19924;-75
2023/08/20 01:48:40;;;;;;;;;;;;;;;28.81;100.00;98256.06;5122175;28;19996;-76
2023/08/20 01:51:06;;;;;;;;;;;;;;;28.82;100.00;98251.34;5114807;28;19927;-76
2023/08/20 01:53:33;;;;;;;;;;;;;;;28.77;100.00;98244.25;5120023;28;20459;-75
2023/08/20 01:55:59;;;;;;;;;;;;;;;28.58;100.00;98249.84;5121895;28;19953;-75
2023/08/20 01:58:26;;;;;;;;;;;;;;;28.35;100.00;98238.16;5113265;28;19955;-75
2023/08/20 02:00:54;;;;;;;;;;;;;;;28.19;100.00;98240.31;5116766;28;19924;-75
2023/08/20 02:03:22;;;;;;;;;;;;;;;28.26;100.00;98243.91;5123346;28;19967;-75
2023/08/20 02:05:48;;;;;;;;;;;;;;;28.45;100.00;98253.19;5121730;28;19947;-75
2023/08/20 02:08:15;;;;;;;;;;;;;;;28.55;100.00;98255.31;5122502;28;19931;-75
2023/08/20 02:10:41;;;;;;;;;;;;;;;28.59;100.00;98259.69;5118701;28;19923;-75
2023/08/20 02:13:08;;;;;;;;;;;;;;;28.63;100.00;98260.50;5114838;28;19924;-75
2023/08/20 02:15:34;;;;;;;;;;;;;;;28.65;100.00;98257.44;5119235;28;19950;-75
2023/08/20 02:18:01;;;;;;;;;;;;;;;28.63;100.00;98257.75;5121550;28;19923;-75
2023/08/20 02:20:28;;;;;;;;;;;;;;;28.53;100.00;98252.16;5115535;28;19924;-75
2023/08/20 02:22:55;;;;;;;;;;;;;;;28.54;100.00;98251.75;5116059;28;19954;-75
2023/08/20 02:25:21;;;;;;;;;;;;;;;28.59;100.00;98256.16;5120177;28;19966;-75
2023/08/20 02:27:48;;;;;;;;;;;;;;;28.60;100.00;98255.75;5120610;28;19924;-75
2023/08/20 02:30:14;;;;;;;;;;;;;;;28.60;100.00;98254.97;5121218;28;19924;-75
2023/08/20 02:32:40;;;;;;;;;;;;;;;28.61;100.00;98262.84;5117480;28;19923;-76
2023/08/20 02:35:07;;;;;;;;;;;;;;;28.48;100.00;98258.75;5115194;28;19951;-75
2023/08/20 02:37:36;;;;;;;;;;;;;;;28.49;100.00;98267.78;5119825;28;19950;-75
2023/08/20 02:40:04;;;;;;;;;;;;;;;28.53;100.00;98261.19;5121041;28;19923;-75
2023/08/20 02:42:30;;;;;;;;;;;;;;;28.53;100.00;98268.63;5115708;28;19923;-75
2023/08/20 02:44:57;;;;;;;;;;;;;;;28.56;100.00;98267.88;5115188;28;19924;-75
2023/08/20 02:47:23;;;;;;;;;;;;;;;28.52;100.00;98276.06;5119617;28;19967;-75
2023/08/20 02:49:49;;;;;;;;;;;;;;;28.55;100.00;98274.53;5120901;28;19942;-76
2023/08/20 02:52:16;;;;;;;;;;;;;;;28.54;100.00;98281.19;5113360;28;19967;-75
2023/08/20 02:54:43;;;;;;;;;;;;;;;28.53;100.00;98276.88;5117271;28;19950;-75
2023/08/20 02:57:10;;;;;;;;;;;;;;;28.54;100.00;98281.19;5119585;28;19931;-75
2023/08/20 02:59:36;;;;;;;;;;;;;;;28.49;100.00;98290.56;5119640;28;19974;-75
2023/08/20 03:02:03;;;;;;;;;;;;;;;28.52;100.00;98291.78;5120569;28;19926;-75
2023/08/20 03:04:30;;;;;;;;;;;;;;;28.47;100.00;98284.66;5114934;28;19928;-75
2023/08/20 03:06:56;;;;;;;;;;;;;;;28.47;100.00;98290.16;5114922;28;19952;-76
2023/08/20 03:09:22;;;;;;;;;;;;;;;28.47;100.00;98284.66;5119449;28;19932;-76
2023/08/20 03:11:50;;;;;;;;;;;;;;;28.48;100.00;98285.41;5118946;28;19924;-76
2023/08/20 03:14:17;;;;;;;;;;;;;;;28.42;100.00;98282.22;5114252;28;19924;-76
2023/08/20 03:16:43;;;;;;;;;;;;;;;28.41;100.00;98283.38;5116005;28;19924;-76
2023/08/20 03:19:09;;;;;;;;;;;;;;;28.09;100.00;98288.41;5118972;28;19955;-76
2023/08/20 03:21:36;;;;;;;;;;;;;;;27.85;100.00;98288.78;5120390;28;19924;-76
2023/08/20 03:24:02;;;;;;;;;;;;;;;27.76;100.00;98286.25;5119292;28;19930;-76
2023/08/20 03:26:29;;;;;;;;;;;;;;;27.86;100.00;98285.66;5110600;28;19956;-76
2023/08/20 03:28:57;;;;;;;;;;;;;;;27.72;100.00;98284.63;5100837;28;19935;-76
2023/08/20 03:31:24;;;;;;;;;;;;;;;27.63;100.00;98290.38;5118865;28;19920;-76
2023/08/20 03:33:50;;;;;;;;;;;;;;;27.33;100.00;98287.44;5118735;28;19935;-76
2023/08/20 03:36:16;;;;;;;;;;;;;;;27.35;100.00;98295.31;5113971;28;19958;-76
2023/08/20 03:38:43;;;;;;;;;;;;;;;27.20;100.00;98293.44;5116145;28;19927;-76
2023/08/20 03:41:09;;;;;;;;;;;;;;;27.01;100.00;98297.00;5118483;28;19924;-76
2023/08/20 03:43:36;;;;;;;;;;;;;;;26.90;100.00;98292.44;5120011;28;19931;-76
2023/08/20 03:46:03;;;;;;;;;;;;;;;26.86;100.00;98288.84;5109874;28;20348;-76
2023/08/20 03:48:30;;;;;;;;;;;;;;;26.83;100.00;98302.09;5120077;28;19923;-75
2023/08/20 03:50:56;;;;;;;;;;;;;;;27.17;100.00;98288.69;5114768;28;19956;-75
2023/08/20 03:53:23;;;;;;;;;;;;;;;27.28;100.00;98290.47;5119875;28;19923;-75
2023/08/20 03:55:49;;;;;;;;;;;;;;;27.57;100.00;98291.81;5118311;28;19924;-75
2023/08/20 03:58:16;;;;;;;;;;;;;;;27.67;100.00;98290.41;5113820;28;19928;-75
2023/08/20 04:00:42;;;;;;;;;;;;;;;27.30;100.00;98292.84;5116129;28;19924;-75
2023/08/20 04:03:10;;;;;;;;;;;;;;;27.39;100.00;98290.66;5118538;28;19924;-75
2023/08/20 04:05:37;;;;;;;;;;;;;;;27.20;100.00;98293.44;5120026;28;20364;-75
2023/08/20 04:08:04;;;;;;;;;;;;;;;27.25;100.00;98290.41;5118588;28;19924;-75
2023/08/20 04:10:30;;;;;;;;;;;;;;;27.53;100.00;98290.97;5114185;28;19950;-75
2023/08/20 04:12:57;;;;;;;;;;;;;;;27.55;100.00;98283.16;5114204;28;19923;-76
2023/08/20 04:15:23;;;;;;;;;;;;;;;27.54;100.00;98281.59;5118076;28;19975;-75
2023/08/20 04:17:50;;;;;;;;;;;;;;;27.30;100.00;98284.63;5118282;28;19923;-75
2023/08/20 04:20:17;;;;;;;;;;;;;;;27.15;100.00;98288.25;5113512;28;19946;-75
2023/08/20 04:22:44;;;;;;;;;;;;;;;27.07;100.00;98289.28;5115889;28;19931;-76
2023/08/20 04:25:10;;;;;;;;;;;;;;;27.04;100.00;98284.50;5118491;28;19924;-76
2023/08/20 04:27:36;;;;;;;;;;;;;;;27.08;100.00;98282.66;5119868;28;19924;-76
2023/08/20 04:30:03;;;;;;;;;;;;;;;27.36;100.00;98286.69;5118362;28;19946;-76
2023/08/20 04:32:30;;;;;;;;;;;;;;;27.63;100.00;98284.88;5110192;28;19989;-76
2023/08/20 04:34:56;;;;;;;;;;;;;;;27.74;100.00;98291.31;5118341;28;19924;-76
2023/08/20 04:37:24;;;;;;;;;;;;;;;27.81;100.00;98291.44;5118351;28;19924;-76
2023/08/20 04:39:50;;;;;;;;;;;;;;;27.70;100.00;98290.47;5118177;28;19963;-76
2023/08/20 04:42:17;;;;;;;;;;;;;;;27.44;100.00;98290.41;5113274;28;19932;-76
2023/08/20 04:44:43;;;;;;;;;;;;;;;27.23;100.00;98290.00;5115723;28;19924;-76
2023/08/20 04:47:12;;;;;;;;;;;;;;;27.13;100.00;98298.78;5114805;28;19967;-76
2023/08/20 04:49:38;;;;;;;;;;;;;;;27.02;100.00;98303.28;5119493;28;19924;-76
2023/08/20 04:52:05;;;;;;;;;;;;;;;27.06;100.00;98309.59;5118273;28;19947;-75
2023/08/20 04:54:32;;;;;;;;;;;;;;;27.16;100.00;98306.28;5113918;28;19969;-75
2023/08/20 04:56:59;;;;;;;;;;;;;;;27.33;100.00;98312.09;5113261;28;20430;-76
2023/08/20 04:59:26;;;;;;;;;;;;;;;27.36;100.00;98313.31;5100023;28;19924;-75
2023/08/20 05:01:52;;;;;;;;;;;;;;;27.38;100.00;98311.03;5118020;28;19924;-75
2023/08/20 05:04:18;;;;;;;;;;;;;;;27.52;100.00;98310.50;5112973;28;19924;-75
2023/08/20 05:06:45;;;;;;;;;;;;;;;27.43;100.00;98316.25;5115289;28;19952;-76
2023/08/20 05:09:11;;;;;;;;;;;;;;;27.26;100.00;98303.78;5117956;28;19935;-76
2023/08/20 05:11:39;;;;;;;;;;;;;;;27.11;100.00;98312.06;5119382;28;19952;-76
2023/08/20 05:14:05;;;;;;;;;;;;;;;26.93;100.00;98314.44;5110389;28;19924;-75
2023/08/20 05:16:32;;;;;;;;;;;;;;;26.83;100.00;98315.81;5115993;28;20061;-75
2023/08/20 05:18:58;;;;;;;;;;;;;;;26.94;100.00;98312.50;5118016;28;19962;-75
2023/08/20 05:21:24;;;;;;;;;;;;;;;27.26;100.00;98317.47;5119113;28;19924;-75
2023/08/20 05:23:51;;;;;;;;;;;;;;;27.25;100.00;98323.31;5116551;28;19923;-75
2023/08/20 05:26:17;;;;;;;;;;;;;;;27.32;100.00;98326.19;5112733;28;19935;-75
2023/08/20 05:28:45;;;;;;;;;;;;;;;27.14;100.00;98339.53;5118478;28;19924;-76
2023/08/20 05:31:11;;;;;;;;;;;;;;;27.02;100.00;98331.47;5121472;28;19924;-76
2023/08/20 05:33:38;;;;;;;;;;;;;;;27.19;100.00;98335.72;5119419;28;19923;-76
2023/08/20 05:36:04;;;;;;;;;;;;;;;27.14;100.00;98336.81;5116432;28;19920;-76
2023/08/20 05:38:31;;;;;;;;;;;;;;;26.89;100.00;98338.25;5120736;28;19920;-76
2023/08/20 05:40:57;;;;;;;;;;;;;;;27.11;100.00;98339.50;5121024;28;19931;-76
2023/08/20 05:43:23;;;;;;;;;;;;;;;27.16;100.00;98341.94;5122495;28;19931;-76
2023/08/20 05:45:51;;;;;;;;;;;;;;;27.17;100.00;98344.31;5111786;28;19963;-76
2023/08/20 05:48:18;;;;;;;;;;;;;;;27.43;100.00;98337.38;5120066;28;19962;-76
2023/08/20 05:50:45;;;;;;;;;;;;;;;27.58;100.00;98337.28;5120796;28;19932;-76
2023/08/20 05:53:11;;;;;;;;;;;;;;;27.73;100.00;98341.09;5121861;28;19983;-76
2023/08/20 05:55:39;;;;;;;;;;;;;;;27.81;100.00;98343.59;5119661;28;19924;-76
2023/08/20 05:58:05;;;;;;;;;;;;;;;27.56;100.00;98339.63;5117519;28;19924;-76
2023/08/20 06:00:32;;;;;;;;;;;;;;;27.91;100.00;98344.94;5120806;28;19994;-76
2023/08/20 06:03:00;;;;;;;;;;;;;;;28.14;100.00;98339.47;5122362;28;19928;-76
2023/08/20 06:05:26;;;;;;;;;;;;;;;28.27;100.00;98340.84;5115183;28;19912;-76
2023/08/20 06:07:53;;;;;;;;;;;;;;;28.32;100.00;98343.28;5121418;28;19986;-76
2023/08/20 06:10:19;;;;;;;;;;;;;;;28.05;100.00;98344.41;5114105;28;19928;-76
2023/08/20 06:12:46;;;;;;;;;;;;;;;27.95;100.00;98343.03;5120799;28;19931;-76
2023/08/20 06:15:12;;;;;;;;;;;;;;;27.69;100.00;98349.28;5120694;28;19931;-76
2023/08/20 06:17:38;;;;;;;;;;;;;;;27.54;100.00;98350.16;5117532;28;20345;-76
2023/08/20 06:20:08;;;;;;;;;;;;;;;27.34;100.00;98349.38;5115425;28;19970;-76
2023/08/20 06:22:34;;;;;;;;;;;;;;;27.24;100.00;98352.69;5119370;28;19946;-76
2023/08/20 06:25:01;;;;;;;;;;;;;;;27.07;100.00;98350.38;5120791;28;20423;-76
2023/08/20 06:27:27;;;;;;;;;;;;;;;26.93;100.00;98349.28;5113690;28;19928;-76
2023/08/20 06:29:53;;;;;;;;;;;;;;;26.73;100.00;98351.97;5119299;28;19923;-76
2023/08/20 06:32:20;;;;;;;;;;;;;;;26.73;100.00;98351.19;5112773;28;19924;-76
2023/08/20 06:34:46;;;;;;;;;;;;;;;26.96;100.00;98352.09;5120279;28;19931;-76
2023/08/20 06:37:14;;;;;;;;;;;;;;;27.35;100.00;98345.47;5121496;28;19969;-76
2023/08/20 06:39:40;;;;;;;;;;;;;;;27.03;100.00;98346.75;5116817;28;19924;-76
2023/08/20 06:42:07;;;;;;;;;;;;;;;27.53;100.00;98336.81;5115270;28;19935;-76
2023/08/20 06:44:35;;;;;;;;;;;;;;;27.53;100.00;98334.06;5119070;28;19982;-76
2023/08/20 06:47:01;;;;;;;;;;;;;;;27.65;100.00;98342.91;5120482;28;19985;-75
2023/08/20 06:49:27;;;;;;;;;;;;;;;27.45;100.00;98344.09;5121319;28;19924;-76
2023/08/20 06:51:54;;;;;;;;;;;;;;;27.47;100.00;98344.53;5111660;28;19958;-75
2023/08/20 06:54:22;;;;;;;;;;;;;;;27.84;100.00;98351.09;5119893;28;19935;-75
2023/08/20 06:56:49;;;;;;;;;;;;;;;27.92;100.00;98348.47;5119792;28;19978;-75
2023/08/20 06:59:16;;;;;;;;;;;;;;;28.06;100.00;98351.50;5120845;28;19930;-75
2023/08/20 07:01:42;;;;;;;;;;;;;;;27.96;100.00;98349.31;5116849;28;19945;-75
2023/08/20 07:04:09;;;;;;;;;;;;;;;27.94;100.00;98366.19;5114690;28;19931;-75
2023/08/20 07:06:35;;;;;;;;;;;;;;;27.72;100.00;98359.53;5118350;28;19924;-75
2023/08/20 07:09:03;;;;;;;;;;;;;;;27.64;100.00;98359.72;5119569;28;19963;-75
2023/08/20 07:11:31;;;;;;;;;;;;;;;27.94;100.00;98366.19;5120902;28;19924;-76
2023/08/20 07:13:57;;;;;;;;;;;;;;;28.22;100.00;98365.91;5118787;28;19953;-76
2023/08/20 07:16:24;;;;;;;;;;;;;;;28.33;100.00;98372.34;5111013;28;19947;-76
2023/08/20 07:18:50;;;;;;;;;;;;;;;28.40;100.00;98377.94;5119301;28;19928;-76
2023/08/20 07:21:16;;;;;;;;;;;;;;;28.67;100.00;98374.06;5119882;28;19923;-77
2023/08/20 07:23:43;;;;;;;;;;;;;;;28.45;100.00;98374.09;5117463;28;19924;-76
2023/08/20 07:26:12;;;;;;;;;;;;;;;28.06;100.00;98376.22;5114330;28;19967;-76
2023/08/20 07:28:57;;;;;;;;;;;;;;;28.32;100.00;98381.72;5117632;28;19924;-76
2023/08/20 07:31:24;;;;;;;;;;;;;;;28.42;100.00;98376.41;5119319;28;19919;-76
2023/08/20 07:33:51;;;;;;;;;;;;;;;28.37;100.00;98375.94;5120555;28;19927;-76
2023/08/20 07:36:18;;;;;;;;;;;;;;;28.38;100.00;98383.00;5112883;28;20495;-76
2023/08/20 07:38:44;;;;;;;;;;;;;;;28.38;100.00;98385.75;5116384;28;19920;-75
2023/08/20 07:41:11;;;;;;;;;;;;;;;28.21;100.00;98386.28;5118989;28;19985;-76
2023/08/20 07:43:40;;;;;;;;;;;;;;;28.05;100.00;98383.66;5119088;28;19924;-75
2023/08/20 07:46:06;;;;;;;;;;;;;;;27.96;100.00;98379.53;5120230;28;19924;-75
2023/08/20 07:48:33;;;;;;;;;;;;;;;27.66;100.00;98382.94;5114286;28;19924;-75
2023/08/20 07:50:59;;;;;;;;;;;;;;;27.61;100.00;98372.22;5112860;28;19935;-74
2023/08/20 07:53:26;;;;;;;;;;;;;;;27.42;100.00;98372.22;5118639;28;19924;-76
2023/08/20 07:55:52;;;;;;;;;;;;;;;27.60;100.00;98373.41;5120015;28;19925;-76
2023/08/20 07:58:18;;;;;;;;;;;;;;;27.58;100.00;98374.91;5094988;28;19971;-76
2023/08/20 08:00:46;;;;;;;;;;;;;;;27.75;100.00;98369.78;5115920;28;19924;-75
2023/08/20 08:03:14;;;;;;;;;;;;;;;27.92;100.00;98373.16;5118891;28;19987;-76
2023/08/20 08:05:40;;;;;;;;;;;;;;;27.99;100.00;98373.31;5118846;28;19996;-75
2023/08/20 08:08:07;;;;;;;;;;;;;;;27.87;100.00;98382.53;5120193;28;19924;-76
2023/08/20 08:10:33;;;;;;;;;;;;;;;27.81;100.00;98371.06;5114684;28;19931;-76
2023/08/20 08:13:00;;;;;;;;;;;;;;;28.02;100.00;98372.56;5113859;28;19928;-76
2023/08/20 08:15:26;;;;;;;;;;;;;;;28.21;100.00;98373.34;5109084;28;19924;-76
2023/08/20 08:17:54;;;;;;;;;;;;;;;28.21;100.00;98375.28;5118750;28;19991;-76
2023/08/20 08:20:20;;;;;;;;;;;;;;;28.01;100.00;98371.00;5113391;28;19924;-77
2023/08/20 08:22:47;;;;;;;;;;;;;;;28.00;100.00;98374.91;5115391;28;19932;-76
2023/08/20 08:25:13;;;;;;;;;;;;;;;28.08;100.00;98376.63;5118340;28;19928;-76
2023/08/20 08:27:39;;;;;;;;;;;;;;;27.96;100.00;98385.03;5118332;28;19924;-76
2023/08/20 08:30:07;;;;;;;;;;;;;;;28.02;100.00;98375.31;5119693;28;19978;-76
2023/08/20 08:32:33;;;;;;;;;;;;;;;28.05;100.00;98377.38;5114535;28;19924;-76
2023/08/20 08:35:01;;;;;;;;;;;;;;;28.15;100.00;98379.50;5113858;28;19978;-75
2023/08/20 08:37:27;;;;;;;;;;;;;;;28.40;100.00;98377.94;5108740;28;19925;-75
2023/08/20 08:39:53;;;;;;;;;;;;;;;28.52;100.00;98372.25;5119800;28;19925;-75
2023/08/20 08:42:23;;;;;;;;;;;;;;;28.51;100.00;98373.41;5112405;28;19966;-76
2023/08/20 08:44:50;;;;;;;;;;;;;;;28.49;100.00;98374.94;5115171;28;19951;-76
2023/08/20 08:47:17;;;;;;;;;;;;;;;28.40;100.00;98377.94;5118662;28;19927;-76
2023/08/20 08:49:44;;;;;;;;;;;;;;;28.66;100.00;98377.97;5118100;28;19935;-76
2023/08/20 08:52:12;;;;;;;;;;;;;;;28.55;100.00;98378.97;5119141;28;19920;-76
2023/08/20 08:54:39;;;;;;;;;;;;;;;28.54;100.00;98378.16;5115204;28;19951;-75
2023/08/20 08:57:06;;;;;;;;;;;;;;;28.62;100.00;98377.13;5113148;28;19924;-75
2023/08/20 08:59:32;;;;;;;;;;;;;;;28.93;100.00;98385.06;5117023;28;19924;-75
2023/08/20 09:01:59;;;;;;;;;;;;;;;28.80;100.00;98389.19;5102132;28;19928;-75
2023/08/20 09:04:25;;;;;;;;;;;;;;;28.80;100.00;98382.91;5118158;28;19931;-76
2023/08/20 09:06:52;;;;;;;;;;;;;;;28.80;100.00;98383.69;5118433;28;19946;-76
2023/08/20 09:09:21;;;;;;;;;;;;;;;29.05;100.00;98388.75;5122083;28;19928;-76
2023/08/20 09:11:48;;;;;;;;;;;;;;;29.19;100.00;98386.16;5122101;28;20413;-75
2023/08/20 09:14:21;;;;;;;;;;;;;;;29.09;100.00;98386.84;5123264;28;19923;-75
2023/08/20 09:16:48;;;;;;;;;;;;;;;29.20;100.00;98387.75;5119551;28;19946;-75
2023/08/20 09:19:14;;;;;;;;;;;;;;;29.32;100.00;98393.84;5116754;28;19920;-75
2023/08/20 09:21:46;;;;;;;;;;;;;;;29.27;100.00;98405.19;5119754;28;19966;-75
2023/08/20 09:24:13;;;;;;;;;;;;;;;29.35;100.00;98390.34;5122033;28;19928;-76
2023/08/20 09:26:40;;;;;;;;;;;;;;;29.55;100.00;98396.47;5123098;28;19924;-76
2023/08/20 09:29:07;;;;;;;;;;;;;;;29.64;100.00;98394.22;5121477;28;19923;-76
2023/08/20 09:31:38;;;;;;;;;;;;;;;29.76;100.00;98399.44;5113338;28;19963;-76
2023/08/20 09:34:05;;;;;;;;;;;;;;;30.12;100.00;98388.78;5121900;28;19935;-76
2023/08/20 09:36:32;;;;;;;;;;;;;;;30.20;98.25;98395.97;5121848;28;19957;-77
2023/08/20 09:38:58;;;;;;;;;;;;;;;30.03;100.00;98402.09;5122561;28;19931;-76
2023/08/20 09:41:24;;;;;;;;;;;;;;;29.94;100.00;98388.63;5116755;28;19920;-76
2023/08/20 09:43:56;;;;;;;;;;;;;;;30.11;100.00;98387.22;5118396;28;19920;-75
2023/08/20 09:46:24;;;;;;;;;;;;;;;30.29;99.00;98388.19;5125438;28;19924;-75
2023/08/20 09:48:52;;;;;;;;;;;;;;;30.84;96.14;98381.50;5121675;28;19924;-75
2023/08/20 09:51:22;;;;;;;;;;;;;;;30.63;92.98;98397.13;5123397;28;19949;-75
2023/08/20 09:53:51;;;;;;;;;;;;;;;30.47;93.95;98391.88;5115204;28;19924;-75
2023/08/20 09:56:22;;;;;;;;;;;;;;;30.70;92.79;98388.91;5122052;28;19924;-74
2023/08/20 09:58:49;;;;;;;;;;;;;;;30.68;91.72;98392.03;5122140;28;19924;-76
2023/08/20 10:01:17;;;;;;;;;;;;;;;30.28;93.63;98387.38;5122912;28;19945;-76
2023/08/20 10:03:44;;;;;;;;;;;;;;;30.48;92.42;98393.47;5118651;28;19980;-75
2023/08/20 10:06:11;;;;;;;;;;;;;;;30.92;91.77;98385.88;5116037;28;19967;-77
2023/08/20 10:08:37;;;;;;;;;;;;;;;30.74;87.90;98382.22;5119599;28;19924;-75
2023/08/20 10:11:03;;;;;;;;;;;;;;;30.79;84.58;98384.63;5121190;28;19924;-75
2023/08/20 10:13:30;;;;;;;;;;;;;;;30.49;83.06;98387.56;5113556;28;19939;-75
2023/08/20 10:15:56;;;;;;;;;;;;;;;30.54;85.00;98394.72;5112412;28;19931;-77
2023/08/20 10:18:25;;;;;;;;;;;;;;;30.49;84.76;98393.09;5120884;28;19924;-75
2023/08/20 10:20:51;;;;;;;;;;;;;;;30.61;88.17;98393.97;5120773;28;19984;-74
2023/08/20 10:23:21;;;;;;;;;;;;;;;31.12;87.16;98380.09;5121861;28;19923;-75
2023/08/20 10:25:47;;;;;;;;;;;;;;;31.15;85.17;98382.09;5118527;28;19946;-76
2023/08/20 10:28:15;;;;;;;;;;;;;;;31.32;86.74;98379.38;5115473;28;19925;-76
2023/08/20 10:30:56;;;;;;;;;;;;;;;31.20;83.59;98381.69;5118668;28;19974;-75
2023/08/20 10:33:22;;;;;;;;;;;;;;;31.03;82.13;98377.69;5119946;28;19927;-74
2023/08/20 10:35:50;;;;;;;;;;;;;;;30.98;83.35;98378.03;5112856;28;19954;-74
2023/08/20 10:38:17;;;;;;;;;;;;;;;31.35;86.09;98377.84;5097330;28;19931;-74
2023/08/20 10:40:54;;;;;;;;;;;;;;;31.38;82.47;98379.81;5118329;28;19993;-74
2023/08/20 10:43:33;;;;;;;;;;;;;;;31.26;81.37;98380.19;5120306;28;19928;-75
2023/08/20 10:46:06;;;;;;;;;;;;;;;31.16;81.96;98369.88;5123492;28;19931;-75
2023/08/20 10:48:33;;;;;;;;;;;;;;;31.22;81.27;98371.09;5114026;28;19924;-75
2023/08/20 10:51:07;;;;;;;;;;;;;;;31.05;83.21;98375.34;5119999;28;19931;-75
2023/08/20 10:53:34;;;;;;;;;;;;;;;31.10;84.40;98372.22;5105427;28;19954;-74
2023/08/20 10:56:07;;;;;;;;;;;;;;;31.23;85.70;98370.69;5120211;28;19938;-74
2023/08/20 10:58:34;;;;;;;;;;;;;;;31.28;85.10;98372.28;5112726;28;19950;-75
2023/08/20 11:20:24;;;;;;;;;;;;;;;31.97;81.14;98359.84;5103480;28;19928;-74
2023/08/20 11:22:51;;;;;;;;;;;;;;;31.91;78.88;98366.94;5100491;28;19924;-75
2023/08/20 11:25:18;;;;;;;;;;;;;;;31.95;79.75;98356.69;5095840;28;19924;-75
2023/08/20 11:27:45;;;;;;;;;;;;;;;32.18;81.47;98361.09;5098132;28;19929;-75
2023/08/20 11:30:13;;;;;;;;;;;;;;;32.24;75.58;98356.75;5100597;28;19925;-75
2023/08/20 11:32:39;;;;;;;;;;;;;;;32.14;78.39;98358.31;5102040;28;19928;-75
2023/08/20 11:35:06;;;;;;;;;;;;;;;32.26;78.00;98357.91;5100544;28;19929;-75
2023/08/20 11:37:35;;;;;;;;;;;;;;;32.23;74.57;98361.47;5096605;28;19924;-75
2023/08/20 11:40:01;;;;;;;;;;;;;;;32.15;73.99;98357.16;5095794;28;19924;-74
2023/08/20 11:42:27;;;;;;;;;;;;;;;32.26;72.33;98362.66;5082448;28;19932;-74
2023/08/20 11:44:56;;;;;;;;;;;;;;;32.26;73.37;98359.91;5100911;28;19924;-74
2023/08/20 11:47:22;;;;;;;;;;;;;;;32.34;77.07;98355.97;5095208;28;19928;-74
2023/08/20 11:49:49;;;;;;;;;;;;;;;32.42;78.31;98352.78;5097586;28;19924;-74
2023/08/20 11:52:17;;;;;;;;;;;;;;;32.59;79.38;98353.97;5100450;28;19932;-74
2023/08/20 11:54:45;;;;;;;;;;;;;;;32.64;78.18;98350.00;5101511;28;19932;-74
2023/08/20 11:57:11;;;;;;;;;;;;;;;32.65;75.87;98348.84;5100197;28;20005;-74
2023/08/20 11:59:38;;;;;;;;;;;;;;;32.66;71.97;98340.13;5091978;28;19955;-74
2023/08/20 12:02:04;;;;;;;;;;;;;;;32.61;74.34;98348.84;5100085;28;19935;-75
2023/08/20 12:04:31;;;;;;;;;;;;;;;32.43;75.05;98343.31;5100030;28;20529;-75
2023/08/20 12:07:05;;;;;;;;;;;;;;;32.58;71.61;98344.91;5100513;28;19928;-74
2023/08/20 12:09:31;;;;;;;;;;;;;;;32.49;70.25;98346.47;5091638;28;19920;-74
2023/08/20 12:11:59;;;;;;;;;;;;;;;32.46;70.25;98337.00;5078150;28;19924;-74
2023/08/20 12:14:26;;;;;;;;;;;;;;;32.42;70.59;98335.41;5099922;28;19936;-74
2023/08/20 12:16:54;;;;;;;;;;;;;;;32.51;73.35;98330.25;5101570;28;19931;-74
2023/08/20 12:19:20;;;;;;;;;;;;;;;32.56;68.57;98335.41;5100136;28;20000;-74
2023/08/20 12:21:47;;;;;;;;;;;;;;;32.60;70.57;98322.34;5092141;28;19984;-74
2023/08/20 12:24:13;;;;;;;;;;;;;;;32.65;71.21;98326.72;5099249;28;19932;-74
2023/08/20 12:26:40;;;;;;;;;;;;;;;32.72;71.96;98327.47;5099600;28;19928;-75
2023/08/20 12:29:08;;;;;;;;;;;;;;;32.82;70.39;98326.66;5100503;28;19920;-74
2023/08/20 12:31:35;;;;;;;;;;;;;;;32.78;67.54;98320.34;5082820;28;19931;-74
2023/08/20 12:34:02;;;;;;;;;;;;;;;32.93;64.78;98327.38;5080663;28;19928;-74
2023/08/20 12:36:28;;;;;;;;;;;;;;;32.91;64.11;98313.19;5077410;28;19933;-74
2023/08/20 12:38:55;;;;;;;;;;;;;;;32.71;65.00;98309.31;5085990;28;19986;-74
2023/08/20 12:41:21;;;;;;;;;;;;;;;32.66;64.42;98312.47;5080922;28;19935;-74
2023/08/20 12:43:48;;;;;;;;;;;;;;;32.73;62.96;98306.13;5082920;28;19925;-74
2023/08/20 12:46:16;;;;;;;;;;;;;;;32.65;63.35;98312.88;5089695;28;19925;-74
2023/08/20 12:48:42;;;;;;;;;;;;;;;32.80;62.87;98306.91;5086609;28;19932;-74
2023/08/20 12:51:12;;;;;;;;;;;;;;;32.74;64.41;98302.97;5085086;28;19924;-74
2023/08/20 12:53:38;;;;;;;;;;;;;;;32.76;65.89;98285.97;5076777;28;20469;-74
2023/08/20 12:56:05;;;;;;;;;;;;;;;32.81;65.49;98294.63;5085208;28;19966;-74
2023/08/20 12:58:31;;;;;;;;;;;;;;;32.84;66.47;98288.31;5085854;28;19925;-75